sensor_id;sensor_type;location;lat;lon;timestamp;P1;durP1;ratioP1;P2;durP2;ratioP2
23578;SDS011;11967;50.852;4.400;2022-09-30T00:01:37;16.80;;;10.18;;
23578;SDS011;11967;50.852;4.400;2022-09-30T00:04:06;16.90;;;10.60;;
23578;SDS011;11967;50.852;4.400;2022-09-30T00:06:36;15.43;;;10.27;;
23578;SDS011;11967;50.852;4.400;2022-09-30T00:09:02;16.75;;;10.73;;
23578;SDS011;11967;50.852;4.400;2022-09-30T00:11:29;15.13;;;9.95;;
23578;SDS011;11967;50.852;4.400;2022-09-30T00:13:56;15.05;;;10.07;;
23578;SDS011;11967;50.852;4.400;2022-09-30T00:16:23;16.65;;;9.75;;
23578;SDS011;11967;50.852;4.400;2022-09-30T00:18:50;15.50;;;9.50;;
23578;SDS011;11967;50.852;4.400;2022-09-30T00:21:19;14.73;;;9.65;;
23578;SDS011;11967;50.852;4.400;2022-09-30T00:23:45;17.15;;;10.30;;
23578;SDS011;11967;50.852;4.400;2022-09-30T00:26:12;18.95;;;10.43;;
23578;SDS011;11967;50.852;4.400;2022-09-30T00:28:39;19.13;;;10.77;;
23578;SDS011;11967;50.852;4.400;2022-09-30T00:31:07;15.27;;;10.63;;
23578;SDS011;11967;50.852;4.400;2022-09-30T00:33:35;13.20;;;10.05;;
23578;SDS011;11967;50.852;4.400;2022-09-30T00:36:01;18.45;;;10.73;;
23578;SDS011;11967;50.852;4.400;2022-09-30T00:38:28;15.88;;;11.23;;
23578;SDS011;11967;50.852;4.400;2022-09-30T00:40:53;15.60;;;10.43;;
23578;SDS011;11967;50.852;4.400;2022-09-30T00:43:42;18.08;;;10.63;;
23578;SDS011;11967;50.852;4.400;2022-09-30T00:49:16;17.67;;;10.48;;
23578;SDS011;11967;50.852;4.400;2022-09-30T00:51:46;17.58;;;11.07;;
23578;SDS011;11967;50.852;4.400;2022-09-30T00:54:25;15.35;;;11.07;;
23578;SDS011;11967;50.852;4.400;2022-09-30T00:56:56;15.80;;;10.43;;
23578;SDS011;11967;50.852;4.400;2022-09-30T00:59:27;16.85;;;11.05;;
23578;SDS011;11967;50.852;4.400;2022-09-30T01:01:57;15.55;;;10.77;;
23578;SDS011;11967;50.852;4.400;2022-09-30T01:04:24;17.65;;;10.55;;
23578;SDS011;11967;50.852;4.400;2022-09-30T01:06:51;19.60;;;10.82;;
23578;SDS011;11967;50.852;4.400;2022-09-30T01:09:17;16.48;;;10.80;;
23578;SDS011;11967;50.852;4.400;2022-09-30T01:11:44;17.40;;;10.63;;
23578;SDS011;11967;50.852;4.400;2022-09-30T01:14:12;17.50;;;11.38;;
23578;SDS011;11967;50.852;4.400;2022-09-30T01:16:57;15.75;;;11.30;;
23578;SDS011;11967;50.852;4.400;2022-09-30T01:30:20;18.35;;;10.68;;
23578;SDS011;11967;50.852;4.400;2022-09-30T01:32:58;15.18;;;10.18;;
23578;SDS011;11967;50.852;4.400;2022-09-30T01:38:11;16.77;;;10.90;;
23578;SDS011;11967;50.852;4.400;2022-09-30T01:41:03;16.08;;;10.02;;
23578;SDS011;11967;50.852;4.400;2022-09-30T01:46:25;13.05;;;9.70;;
23578;SDS011;11967;50.852;4.400;2022-09-30T01:56:46;12.52;;;10.02;;
23578;SDS011;11967;50.852;4.400;2022-09-30T02:02:18;12.55;;;9.98;;
23578;SDS011;11967;50.852;4.400;2022-09-30T02:04:52;15.18;;;10.70;;
23578;SDS011;11967;50.852;4.400;2022-09-30T02:07:24;13.65;;;9.98;;
23578;SDS011;11967;50.852;4.400;2022-09-30T02:09:58;12.90;;;9.75;;
23578;SDS011;11967;50.852;4.400;2022-09-30T02:12:28;16.25;;;10.05;;
23578;SDS011;11967;50.852;4.400;2022-09-30T02:14:58;17.63;;;11.23;;
23578;SDS011;11967;50.852;4.400;2022-09-30T02:17:37;13.98;;;10.13;;
23578;SDS011;11967;50.852;4.400;2022-09-30T02:20:40;14.98;;;9.90;;
23578;SDS011;11967;50.852;4.400;2022-09-30T02:23:04;14.98;;;9.80;;
23578;SDS011;11967;50.852;4.400;2022-09-30T02:25:46;14.43;;;10.15;;
23578;SDS011;11967;50.852;4.400;2022-09-30T02:28:19;14.50;;;10.45;;
23578;SDS011;11967;50.852;4.400;2022-09-30T02:30:49;17.83;;;10.25;;
23578;SDS011;11967;50.852;4.400;2022-09-30T02:33:17;14.95;;;9.90;;
23578;SDS011;11967;50.852;4.400;2022-09-30T02:35:48;14.77;;;10.30;;
23578;SDS011;11967;50.852;4.400;2022-09-30T02:38:18;16.30;;;10.52;;
23578;SDS011;11967;50.852;4.400;2022-09-30T02:43:22;16.42;;;10.85;;
23578;SDS011;11967;50.852;4.400;2022-09-30T02:46:07;16.25;;;12.00;;
23578;SDS011;11967;50.852;4.400;2022-09-30T02:54:44;17.42;;;12.60;;
23578;SDS011;11967;50.852;4.400;2022-09-30T03:00:15;14.98;;;12.43;;
23578;SDS011;11967;50.852;4.400;2022-09-30T03:02:41;16.75;;;12.65;;
23578;SDS011;11967;50.852;4.400;2022-09-30T03:05:07;19.15;;;12.80;;
23578;SDS011;11967;50.852;4.400;2022-09-30T03:07:34;18.67;;;13.35;;
23578;SDS011;11967;50.852;4.400;2022-09-30T03:10:00;17.92;;;12.75;;
23578;SDS011;11967;50.852;4.400;2022-09-30T03:21:07;19.60;;;13.55;;
23578;SDS011;11967;50.852;4.400;2022-09-30T03:26:34;18.85;;;13.10;;
23578;SDS011;11967;50.852;4.400;2022-09-30T03:32:04;18.38;;;13.43;;
23578;SDS011;11967;50.852;4.400;2022-09-30T03:40:39;18.88;;;14.70;;
23578;SDS011;11967;50.852;4.400;2022-09-30T03:43:22;19.40;;;14.27;;
23578;SDS011;11967;50.852;4.400;2022-09-30T03:48:53;18.85;;;13.75;;
23578;SDS011;11967;50.852;4.400;2022-09-30T03:51:23;19.20;;;15.02;;
23578;SDS011;11967;50.852;4.400;2022-09-30T03:53:53;18.88;;;14.20;;
23578;SDS011;11967;50.852;4.400;2022-09-30T03:56:29;18.67;;;14.02;;
23578;SDS011;11967;50.852;4.400;2022-09-30T03:58:55;22.55;;;14.60;;
23578;SDS011;11967;50.852;4.400;2022-09-30T04:01:22;21.02;;;14.73;;
23578;SDS011;11967;50.852;4.400;2022-09-30T04:03:48;18.25;;;14.02;;
23578;SDS011;11967;50.852;4.400;2022-09-30T04:06:21;18.05;;;14.07;;
23578;SDS011;11967;50.852;4.400;2022-09-30T04:08:48;20.70;;;14.55;;
23578;SDS011;11967;50.852;4.400;2022-09-30T04:11:14;20.98;;;15.18;;
23578;SDS011;11967;50.852;4.400;2022-09-30T04:13:40;18.10;;;15.05;;
23578;SDS011;11967;50.852;4.400;2022-09-30T04:16:06;17.55;;;14.75;;
23578;SDS011;11967;50.852;4.400;2022-09-30T04:18:36;20.35;;;15.30;;
23578;SDS011;11967;50.852;4.400;2022-09-30T04:21:06;23.98;;;16.60;;
23578;SDS011;11967;50.852;4.400;2022-09-30T04:23:36;24.08;;;18.05;;
23578;SDS011;11967;50.852;4.400;2022-09-30T04:26:02;20.63;;;16.27;;
23578;SDS011;11967;50.852;4.400;2022-09-30T04:28:30;23.75;;;17.20;;
23578;SDS011;11967;50.852;4.400;2022-09-30T04:30:59;22.70;;;18.05;;
23578;SDS011;11967;50.852;4.400;2022-09-30T04:33:26;22.83;;;16.85;;
23578;SDS011;11967;50.852;4.400;2022-09-30T04:35:55;23.77;;;18.08;;
23578;SDS011;11967;50.852;4.400;2022-09-30T04:38:22;25.73;;;18.88;;
23578;SDS011;11967;50.852;4.400;2022-09-30T04:40:48;24.20;;;18.42;;
23578;SDS011;11967;50.852;4.400;2022-09-30T04:43:21;23.42;;;18.95;;
23578;SDS011;11967;50.852;4.400;2022-09-30T04:45:48;25.63;;;18.05;;
23578;SDS011;11967;50.852;4.400;2022-09-30T04:48:15;22.48;;;19.02;;
23578;SDS011;11967;50.852;4.400;2022-09-30T04:50:41;24.05;;;18.98;;
23578;SDS011;11967;50.852;4.400;2022-09-30T04:53:07;30.83;;;19.02;;
23578;SDS011;11967;50.852;4.400;2022-09-30T04:55:33;26.50;;;20.10;;
23578;SDS011;11967;50.852;4.400;2022-09-30T04:57:59;23.05;;;19.13;;
23578;SDS011;11967;50.852;4.400;2022-09-30T05:00:24;26.85;;;19.23;;
23578;SDS011;11967;50.852;4.400;2022-09-30T05:02:50;25.92;;;19.40;;
23578;SDS011;11967;50.852;4.400;2022-09-30T05:05:16;27.92;;;20.98;;
23578;SDS011;11967;50.852;4.400;2022-09-30T05:07:42;31.85;;;19.02;;
23578;SDS011;11967;50.852;4.400;2022-09-30T05:10:08;28.80;;;20.77;;
23578;SDS011;11967;50.852;4.400;2022-09-30T05:12:35;26.15;;;20.00;;
23578;SDS011;11967;50.852;4.400;2022-09-30T05:15:08;23.42;;;19.10;;
23578;SDS011;11967;50.852;4.400;2022-09-30T05:17:34;27.67;;;19.13;;
23578;SDS011;11967;50.852;4.400;2022-09-30T05:19:59;26.75;;;19.73;;
23578;SDS011;11967;50.852;4.400;2022-09-30T05:22:25;28.88;;;20.60;;
23578;SDS011;11967;50.852;4.400;2022-09-30T05:24:52;28.33;;;21.02;;
23578;SDS011;11967;50.852;4.400;2022-09-30T05:27:20;24.27;;;19.92;;
23578;SDS011;11967;50.852;4.400;2022-09-30T05:29:47;27.83;;;20.70;;
23578;SDS011;11967;50.852;4.400;2022-09-30T05:32:12;25.23;;;20.60;;
23578;SDS011;11967;50.852;4.400;2022-09-30T05:34:38;28.50;;;20.17;;
23578;SDS011;11967;50.852;4.400;2022-09-30T05:37:04;27.95;;;21.05;;
23578;SDS011;11967;50.852;4.400;2022-09-30T05:39:30;25.77;;;20.58;;
23578;SDS011;11967;50.852;4.400;2022-09-30T05:41:56;30.73;;;21.27;;
23578;SDS011;11967;50.852;4.400;2022-09-30T05:44:22;27.13;;;20.27;;
23578;SDS011;11967;50.852;4.400;2022-09-30T05:46:48;27.45;;;21.08;;
23578;SDS011;11967;50.852;4.400;2022-09-30T05:49:14;29.65;;;20.92;;
23578;SDS011;11967;50.852;4.400;2022-09-30T05:51:40;29.13;;;20.77;;
23578;SDS011;11967;50.852;4.400;2022-09-30T05:54:05;30.80;;;20.50;;
23578;SDS011;11967;50.852;4.400;2022-09-30T05:56:31;27.13;;;19.27;;
23578;SDS011;11967;50.852;4.400;2022-09-30T05:58:58;29.05;;;19.88;;
23578;SDS011;11967;50.852;4.400;2022-09-30T06:01:24;25.33;;;18.35;;
23578;SDS011;11967;50.852;4.400;2022-09-30T06:03:50;28.33;;;19.02;;
23578;SDS011;11967;50.852;4.400;2022-09-30T06:06:16;28.00;;;19.10;;
23578;SDS011;11967;50.852;4.400;2022-09-30T06:08:43;23.85;;;18.17;;
23578;SDS011;11967;50.852;4.400;2022-09-30T06:11:10;26.02;;;18.63;;
23578;SDS011;11967;50.852;4.400;2022-09-30T06:13:38;27.20;;;18.33;;
23578;SDS011;11967;50.852;4.400;2022-09-30T06:16:05;24.20;;;17.92;;
23578;SDS011;11967;50.852;4.400;2022-09-30T06:18:32;30.23;;;18.85;;
23578;SDS011;11967;50.852;4.400;2022-09-30T06:21:00;29.55;;;18.17;;
23578;SDS011;11967;50.852;4.400;2022-09-30T06:23:28;26.08;;;17.83;;
23578;SDS011;11967;50.852;4.400;2022-09-30T06:25:54;27.05;;;17.38;;
23578;SDS011;11967;50.852;4.400;2022-09-30T06:28:21;23.15;;;17.33;;
23578;SDS011;11967;50.852;4.400;2022-09-30T06:30:47;25.98;;;17.90;;
23578;SDS011;11967;50.852;4.400;2022-09-30T06:33:13;24.13;;;17.27;;
23578;SDS011;11967;50.852;4.400;2022-09-30T06:35:40;24.98;;;17.83;;
23578;SDS011;11967;50.852;4.400;2022-09-30T06:38:09;25.05;;;17.45;;
23578;SDS011;11967;50.852;4.400;2022-09-30T06:40:36;25.83;;;16.90;;
23578;SDS011;11967;50.852;4.400;2022-09-30T06:43:02;31.02;;;16.55;;
23578;SDS011;11967;50.852;4.400;2022-09-30T06:45:28;26.58;;;16.95;;
23578;SDS011;11967;50.852;4.400;2022-09-30T06:47:57;27.08;;;18.00;;
23578;SDS011;11967;50.852;4.400;2022-09-30T06:50:23;29.20;;;17.45;;
23578;SDS011;11967;50.852;4.400;2022-09-30T06:52:51;24.70;;;17.00;;
23578;SDS011;11967;50.852;4.400;2022-09-30T06:55:21;25.27;;;17.10;;
23578;SDS011;11967;50.852;4.400;2022-09-30T06:57:48;26.40;;;17.08;;
23578;SDS011;11967;50.852;4.400;2022-09-30T07:00:13;28.80;;;18.30;;
23578;SDS011;11967;50.852;4.400;2022-09-30T07:02:41;33.05;;;18.45;;
23578;SDS011;11967;50.852;4.400;2022-09-30T07:05:07;24.50;;;17.08;;
23578;SDS011;11967;50.852;4.400;2022-09-30T07:07:33;26.05;;;16.88;;
23578;SDS011;11967;50.852;4.400;2022-09-30T07:10:00;29.48;;;18.15;;
23578;SDS011;11967;50.852;4.400;2022-09-30T07:12:26;23.77;;;15.63;;
23578;SDS011;11967;50.852;4.400;2022-09-30T07:14:52;25.33;;;16.33;;
23578;SDS011;11967;50.852;4.400;2022-09-30T07:17:20;23.35;;;16.45;;
23578;SDS011;11967;50.852;4.400;2022-09-30T07:19:45;27.98;;;16.20;;
23578;SDS011;11967;50.852;4.400;2022-09-30T07:22:11;26.13;;;16.73;;
23578;SDS011;11967;50.852;4.400;2022-09-30T07:24:56;25.17;;;16.75;;
23578;SDS011;11967;50.852;4.400;2022-09-30T07:27:23;27.00;;;16.45;;
23578;SDS011;11967;50.852;4.400;2022-09-30T07:29:50;22.23;;;15.45;;
23578;SDS011;11967;50.852;4.400;2022-09-30T07:32:16;23.08;;;15.65;;
23578;SDS011;11967;50.852;4.400;2022-09-30T07:34:43;23.50;;;15.43;;
23578;SDS011;11967;50.852;4.400;2022-09-30T07:37:10;24.40;;;15.63;;
23578;SDS011;11967;50.852;4.400;2022-09-30T07:39:38;25.45;;;15.80;;
23578;SDS011;11967;50.852;4.400;2022-09-30T07:42:04;24.98;;;15.15;;
23578;SDS011;11967;50.852;4.400;2022-09-30T07:44:29;19.90;;;13.65;;
23578;SDS011;11967;50.852;4.400;2022-09-30T07:46:56;24.77;;;13.98;;
23578;SDS011;11967;50.852;4.400;2022-09-30T07:49:22;22.38;;;13.75;;
23578;SDS011;11967;50.852;4.400;2022-09-30T07:51:49;19.77;;;13.25;;
23578;SDS011;11967;50.852;4.400;2022-09-30T07:54:17;21.48;;;13.40;;
23578;SDS011;11967;50.852;4.400;2022-09-30T07:56:46;20.73;;;12.65;;
23578;SDS011;11967;50.852;4.400;2022-09-30T07:59:12;22.15;;;12.50;;
23578;SDS011;11967;50.852;4.400;2022-09-30T08:01:38;21.38;;;12.88;;
23578;SDS011;11967;50.852;4.400;2022-09-30T08:04:05;22.40;;;12.35;;
23578;SDS011;11967;50.852;4.400;2022-09-30T08:06:40;19.35;;;12.13;;
23578;SDS011;11967;50.852;4.400;2022-09-30T08:09:09;18.17;;;12.10;;
23578;SDS011;11967;50.852;4.400;2022-09-30T08:11:36;18.48;;;11.27;;
23578;SDS011;11967;50.852;4.400;2022-09-30T08:14:02;21.63;;;11.63;;
23578;SDS011;11967;50.852;4.400;2022-09-30T08:16:28;21.85;;;11.98;;
23578;SDS011;11967;50.852;4.400;2022-09-30T08:18:55;21.73;;;11.02;;
23578;SDS011;11967;50.852;4.400;2022-09-30T08:21:21;19.35;;;11.32;;
23578;SDS011;11967;50.852;4.400;2022-09-30T08:23:47;18.05;;;10.93;;
23578;SDS011;11967;50.852;4.400;2022-09-30T08:26:13;17.73;;;11.18;;
23578;SDS011;11967;50.852;4.400;2022-09-30T08:28:42;18.55;;;10.82;;
23578;SDS011;11967;50.852;4.400;2022-09-30T08:31:11;15.32;;;10.15;;
23578;SDS011;11967;50.852;4.400;2022-09-30T08:33:39;30.05;;;10.68;;
23578;SDS011;11967;50.852;4.400;2022-09-30T08:36:09;17.52;;;10.43;;
23578;SDS011;11967;50.852;4.400;2022-09-30T08:38:36;16.33;;;9.98;;
23578;SDS011;11967;50.852;4.400;2022-09-30T08:43:48;15.13;;;8.55;;
23578;SDS011;11967;50.852;4.400;2022-09-30T08:51:51;14.00;;;8.80;;
23578;SDS011;11967;50.852;4.400;2022-09-30T08:54:19;11.85;;;7.95;;
23578;SDS011;11967;50.852;4.400;2022-09-30T08:56:48;14.25;;;8.27;;
23578;SDS011;11967;50.852;4.400;2022-09-30T09:02:08;15.98;;;7.45;;
23578;SDS011;11967;50.852;4.400;2022-09-30T09:04:40;12.07;;;6.68;;
23578;SDS011;11967;50.852;4.400;2022-09-30T09:07:16;12.05;;;6.50;;
23578;SDS011;11967;50.852;4.400;2022-09-30T09:18:03;9.10;;;6.20;;
23578;SDS011;11967;50.852;4.400;2022-09-30T09:20:31;11.85;;;6.55;;
23578;SDS011;11967;50.852;4.400;2022-09-30T09:23:01;12.57;;;6.10;;
23578;SDS011;11967;50.852;4.400;2022-09-30T09:25:29;8.65;;;5.47;;
23578;SDS011;11967;50.852;4.400;2022-09-30T09:27:56;11.13;;;5.80;;
23578;SDS011;11967;50.852;4.400;2022-09-30T09:30:25;8.68;;;5.30;;
23578;SDS011;11967;50.852;4.400;2022-09-30T09:44:25;9.40;;;5.05;;
23578;SDS011;11967;50.852;4.400;2022-09-30T09:47:12;7.28;;;4.55;;
23578;SDS011;11967;50.852;4.400;2022-09-30T09:49:49;6.30;;;3.92;;
23578;SDS011;11967;50.852;4.400;2022-09-30T09:55:22;7.00;;;4.10;;
23578;SDS011;11967;50.852;4.400;2022-09-30T09:58:03;6.45;;;3.72;;
23578;SDS011;11967;50.852;4.400;2022-09-30T10:00:34;7.82;;;3.72;;
23578;SDS011;11967;50.852;4.400;2022-09-30T10:05:43;6.55;;;4.15;;
23578;SDS011;11967;50.852;4.400;2022-09-30T10:10:45;6.55;;;3.55;;
23578;SDS011;11967;50.852;4.400;2022-09-30T10:13:26;8.50;;;3.60;;
23578;SDS011;11967;50.852;4.400;2022-09-30T10:16:06;6.00;;;3.92;;
23578;SDS011;11967;50.852;4.400;2022-09-30T10:18:47;8.20;;;4.35;;
23578;SDS011;11967;50.852;4.400;2022-09-30T10:21:23;7.35;;;3.97;;
23578;SDS011;11967;50.852;4.400;2022-09-30T10:23:52;13.13;;;5.15;;
23578;SDS011;11967;50.852;4.400;2022-09-30T10:26:23;10.27;;;5.15;;
23578;SDS011;11967;50.852;4.400;2022-09-30T10:28:58;9.90;;;4.68;;
23578;SDS011;11967;50.852;4.400;2022-09-30T10:31:34;7.65;;;4.95;;
23578;SDS011;11967;50.852;4.400;2022-09-30T10:34:24;9.48;;;4.85;;
23578;SDS011;11967;50.852;4.400;2022-09-30T10:36:57;10.95;;;4.82;;
23578;SDS011;11967;50.852;4.400;2022-09-30T10:39:27;16.63;;;5.47;;
23578;SDS011;11967;50.852;4.400;2022-09-30T10:42:00;6.60;;;4.65;;
23578;SDS011;11967;50.852;4.400;2022-09-30T10:44:27;13.73;;;5.13;;
23578;SDS011;11967;50.852;4.400;2022-09-30T10:46:57;11.73;;;5.50;;
23578;SDS011;11967;50.852;4.400;2022-09-30T10:49:35;8.60;;;5.07;;
23578;SDS011;11967;50.852;4.400;2022-09-30T10:52:05;10.25;;;5.28;;
23578;SDS011;11967;50.852;4.400;2022-09-30T10:54:51;8.80;;;5.10;;
23578;SDS011;11967;50.852;4.400;2022-09-30T10:57:24;10.57;;;5.38;;
23578;SDS011;11967;50.852;4.400;2022-09-30T11:00:01;9.82;;;4.82;;
23578;SDS011;11967;50.852;4.400;2022-09-30T11:05:16;8.48;;;5.57;;
23578;SDS011;11967;50.852;4.400;2022-09-30T11:13:19;12.63;;;5.28;;
23578;SDS011;11967;50.852;4.400;2022-09-30T11:21:27;10.88;;;5.13;;
23578;SDS011;11967;50.852;4.400;2022-09-30T11:24:30;10.52;;;4.20;;
23578;SDS011;11967;50.852;4.400;2022-09-30T11:27:15;6.97;;;4.10;;
23578;SDS011;11967;50.852;4.400;2022-09-30T11:48:56;8.93;;;4.47;;
23578;SDS011;11967;50.852;4.400;2022-09-30T11:51:30;10.02;;;4.47;;
23578;SDS011;11967;50.852;4.400;2022-09-30T12:02:03;12.30;;;4.75;;
23578;SDS011;11967;50.852;4.400;2022-09-30T12:04:50;7.50;;;4.75;;
23578;SDS011;11967;50.852;4.400;2022-09-30T12:07:20;4.90;;;3.50;;
23578;SDS011;11967;50.852;4.400;2022-09-30T12:12:17;7.78;;;4.55;;
23578;SDS011;11967;50.852;4.400;2022-09-30T12:17:24;8.55;;;4.70;;
23578;SDS011;11967;50.852;4.400;2022-09-30T12:22:50;6.60;;;4.93;;
23578;SDS011;11967;50.852;4.400;2022-09-30T12:25:43;6.93;;;5.03;;
23578;SDS011;11967;50.852;4.400;2022-09-30T12:28:23;11.88;;;5.28;;
23578;SDS011;11967;50.852;4.400;2022-09-30T12:31:36;8.73;;;4.90;;
23578;SDS011;11967;50.852;4.400;2022-09-30T12:47:45;8.57;;;4.72;;
23578;SDS011;11967;50.852;4.400;2022-09-30T12:50:25;7.82;;;4.70;;
23578;SDS011;11967;50.852;4.400;2022-09-30T12:52:54;12.45;;;4.93;;
23578;SDS011;11967;50.852;4.400;2022-09-30T12:55:36;10.65;;;5.10;;
23578;SDS011;11967;50.852;4.400;2022-09-30T12:58:04;8.07;;;5.00;;
23578;SDS011;11967;50.852;4.400;2022-09-30T13:00:40;8.63;;;5.18;;
23578;SDS011;11967;50.852;4.400;2022-09-30T13:03:21;7.93;;;4.65;;
23578;SDS011;11967;50.852;4.400;2022-09-30T13:05:55;8.20;;;4.95;;
23578;SDS011;11967;50.852;4.400;2022-09-30T13:11:32;9.63;;;4.90;;
23578;SDS011;11967;50.852;4.400;2022-09-30T13:17:02;7.57;;;4.70;;
23578;SDS011;11967;50.852;4.400;2022-09-30T13:27:41;9.32;;;5.03;;
23578;SDS011;11967;50.852;4.400;2022-09-30T13:32:38;9.50;;;5.13;;
23578;SDS011;11967;50.852;4.400;2022-09-30T13:40:46;8.55;;;5.80;;
23578;SDS011;11967;50.852;4.400;2022-09-30T13:46:19;6.88;;;4.82;;
23578;SDS011;11967;50.852;4.400;2022-09-30T13:49:15;10.55;;;5.38;;
23578;SDS011;11967;50.852;4.400;2022-09-30T13:51:49;7.35;;;4.28;;
23578;SDS011;11967;50.852;4.400;2022-09-30T13:54:24;7.57;;;4.07;;
23578;SDS011;11967;50.852;4.400;2022-09-30T13:56:55;9.20;;;3.75;;
23578;SDS011;11967;50.852;4.400;2022-09-30T14:13:08;7.20;;;3.72;;
23578;SDS011;11967;50.852;4.400;2022-09-30T14:29:19;5.05;;;3.10;;
23578;SDS011;11967;50.852;4.400;2022-09-30T14:32:10;4.28;;;2.90;;
23578;SDS011;11967;50.852;4.400;2022-09-30T14:34:59;5.35;;;2.80;;
23578;SDS011;11967;50.852;4.400;2022-09-30T14:37:31;6.80;;;2.60;;
23578;SDS011;11967;50.852;4.400;2022-09-30T14:40:00;5.35;;;3.28;;
23578;SDS011;11967;50.852;4.400;2022-09-30T14:42:34;6.05;;;3.25;;
23578;SDS011;11967;50.852;4.400;2022-09-30T14:45:03;7.18;;;3.28;;
23578;SDS011;11967;50.852;4.400;2022-09-30T14:47:37;5.00;;;2.90;;
23578;SDS011;11967;50.852;4.400;2022-09-30T14:50:17;4.57;;;2.95;;
23578;SDS011;11967;50.852;4.400;2022-09-30T14:52:47;3.90;;;2.78;;
23578;SDS011;11967;50.852;4.400;2022-09-30T14:55:21;6.95;;;2.63;;
23578;SDS011;11967;50.852;4.400;2022-09-30T15:03:37;6.15;;;2.38;;
23578;SDS011;11967;50.852;4.400;2022-09-30T15:06:15;5.75;;;3.13;;
23578;SDS011;11967;50.852;4.400;2022-09-30T15:08:43;8.48;;;3.03;;
23578;SDS011;11967;50.852;4.400;2022-09-30T15:11:09;4.30;;;2.90;;
23578;SDS011;11967;50.852;4.400;2022-09-30T15:13:45;3.55;;;2.42;;
23578;SDS011;11967;50.852;4.400;2022-09-30T15:16:50;4.88;;;3.05;;
23578;SDS011;11967;50.852;4.400;2022-09-30T15:19:21;7.18;;;2.90;;
23578;SDS011;11967;50.852;4.400;2022-09-30T15:21:50;4.75;;;2.50;;
23578;SDS011;11967;50.852;4.400;2022-09-30T15:24:17;6.20;;;2.92;;
23578;SDS011;11967;50.852;4.400;2022-09-30T15:26:44;5.50;;;2.70;;
23578;SDS011;11967;50.852;4.400;2022-09-30T15:29:13;4.05;;;2.80;;
23578;SDS011;11967;50.852;4.400;2022-09-30T15:31:44;4.22;;;2.70;;
23578;SDS011;11967;50.852;4.400;2022-09-30T15:34:19;5.22;;;2.70;;
23578;SDS011;11967;50.852;4.400;2022-09-30T15:37:01;4.88;;;2.88;;
23578;SDS011;11967;50.852;4.400;2022-09-30T15:39:30;5.07;;;2.75;;
23578;SDS011;11967;50.852;4.400;2022-09-30T15:42:37;6.07;;;3.10;;
23578;SDS011;11967;50.852;4.400;2022-09-30T15:45:27;3.88;;;2.50;;
23578;SDS011;11967;50.852;4.400;2022-09-30T15:50:45;6.00;;;3.22;;
23578;SDS011;11967;50.852;4.400;2022-09-30T15:53:17;7.40;;;3.15;;
23578;SDS011;11967;50.852;4.400;2022-09-30T15:55:46;7.82;;;3.28;;
23578;SDS011;11967;50.852;4.400;2022-09-30T16:03:53;5.55;;;2.95;;
23578;SDS011;11967;50.852;4.400;2022-09-30T16:06:25;4.32;;;3.08;;
23578;SDS011;11967;50.852;4.400;2022-09-30T16:08:56;5.32;;;2.97;;
23578;SDS011;11967;50.852;4.400;2022-09-30T16:11:26;6.03;;;2.70;;
23578;SDS011;11967;50.852;4.400;2022-09-30T16:13:54;5.90;;;2.92;;
23578;SDS011;11967;50.852;4.400;2022-09-30T16:16:22;5.93;;;2.47;;
23578;SDS011;11967;50.852;4.400;2022-09-30T16:18:51;4.80;;;2.90;;
23578;SDS011;11967;50.852;4.400;2022-09-30T16:26:49;6.07;;;3.03;;
23578;SDS011;11967;50.852;4.400;2022-09-30T16:29:23;4.72;;;2.75;;
23578;SDS011;11967;50.852;4.400;2022-09-30T16:31:50;5.72;;;2.90;;
23578;SDS011;11967;50.852;4.400;2022-09-30T16:36:49;5.22;;;2.50;;
23578;SDS011;11967;50.852;4.400;2022-09-30T16:39:16;5.50;;;2.63;;
23578;SDS011;11967;50.852;4.400;2022-09-30T16:41:42;5.10;;;2.42;;
23578;SDS011;11967;50.852;4.400;2022-09-30T16:44:08;5.57;;;2.88;;
23578;SDS011;11967;50.852;4.400;2022-09-30T16:46:34;4.78;;;2.40;;
23578;SDS011;11967;50.852;4.400;2022-09-30T16:49:16;4.75;;;2.75;;
23578;SDS011;11967;50.852;4.400;2022-09-30T16:51:43;6.28;;;2.78;;
23578;SDS011;11967;50.852;4.400;2022-09-30T16:54:09;5.22;;;2.42;;
23578;SDS011;11967;50.852;4.400;2022-09-30T16:56:36;4.47;;;2.30;;
23578;SDS011;11967;50.852;4.400;2022-09-30T16:59:02;4.35;;;2.90;;
23578;SDS011;11967;50.852;4.400;2022-09-30T17:01:28;6.00;;;2.88;;
23578;SDS011;11967;50.852;4.400;2022-09-30T17:03:54;5.70;;;2.63;;
23578;SDS011;11967;50.852;4.400;2022-09-30T17:06:25;7.68;;;2.70;;
23578;SDS011;11967;50.852;4.400;2022-09-30T17:08:52;5.20;;;2.63;;
23578;SDS011;11967;50.852;4.400;2022-09-30T17:11:20;4.70;;;2.70;;
23578;SDS011;11967;50.852;4.400;2022-09-30T17:13:53;4.57;;;2.55;;
23578;SDS011;11967;50.852;4.400;2022-09-30T17:16:19;3.88;;;2.40;;
23578;SDS011;11967;50.852;4.400;2022-09-30T17:18:47;4.55;;;2.67;;
23578;SDS011;11967;50.852;4.400;2022-09-30T17:21:15;4.85;;;2.45;;
23578;SDS011;11967;50.852;4.400;2022-09-30T17:23:41;4.45;;;2.50;;
23578;SDS011;11967;50.852;4.400;2022-09-30T17:26:07;5.55;;;2.65;;
23578;SDS011;11967;50.852;4.400;2022-09-30T17:28:33;5.85;;;2.88;;
23578;SDS011;11967;50.852;4.400;2022-09-30T17:30:59;4.72;;;2.55;;
23578;SDS011;11967;50.852;4.400;2022-09-30T17:33:29;4.50;;;2.58;;
23578;SDS011;11967;50.852;4.400;2022-09-30T17:35:59;6.22;;;2.80;;
23578;SDS011;11967;50.852;4.400;2022-09-30T17:38:27;4.45;;;2.40;;
23578;SDS011;11967;50.852;4.400;2022-09-30T17:40:53;5.72;;;2.70;;
23578;SDS011;11967;50.852;4.400;2022-09-30T17:43:38;4.95;;;2.70;;
23578;SDS011;11967;50.852;4.400;2022-09-30T17:46:04;5.68;;;2.63;;
23578;SDS011;11967;50.852;4.400;2022-09-30T17:48:30;4.53;;;2.60;;
23578;SDS011;11967;50.852;4.400;2022-09-30T17:50:56;4.78;;;2.70;;
23578;SDS011;11967;50.852;4.400;2022-09-30T17:53:22;5.25;;;2.63;;
23578;SDS011;11967;50.852;4.400;2022-09-30T17:55:59;7.18;;;3.10;;
23578;SDS011;11967;50.852;4.400;2022-09-30T17:58:36;5.35;;;2.85;;
23578;SDS011;11967;50.852;4.400;2022-09-30T18:01:06;5.45;;;2.75;;
23578;SDS011;11967;50.852;4.400;2022-09-30T18:03:32;9.10;;;2.70;;
23578;SDS011;11967;50.852;4.400;2022-09-30T18:05:58;6.63;;;2.63;;
23578;SDS011;11967;50.852;4.400;2022-09-30T18:08:24;5.75;;;2.70;;
23578;SDS011;11967;50.852;4.400;2022-09-30T18:10:52;6.00;;;2.78;;
23578;SDS011;11967;50.852;4.400;2022-09-30T18:13:18;3.85;;;2.80;;
23578;SDS011;11967;50.852;4.400;2022-09-30T18:15:44;6.95;;;3.17;;
23578;SDS011;11967;50.852;4.400;2022-09-30T18:18:10;4.45;;;2.60;;
23578;SDS011;11967;50.852;4.400;2022-09-30T18:20:40;5.68;;;3.20;;
23578;SDS011;11967;50.852;4.400;2022-09-30T18:23:16;4.43;;;3.17;;
23578;SDS011;11967;50.852;4.400;2022-09-30T18:25:45;7.40;;;3.00;;
23578;SDS011;11967;50.852;4.400;2022-09-30T18:28:13;5.80;;;3.80;;
23578;SDS011;11967;50.852;4.400;2022-09-30T18:30:39;6.05;;;3.05;;
23578;SDS011;11967;50.852;4.400;2022-09-30T18:33:05;4.38;;;3.00;;
23578;SDS011;11967;50.852;4.400;2022-09-30T18:35:32;4.78;;;3.00;;
23578;SDS011;11967;50.852;4.400;2022-09-30T18:37:59;5.72;;;2.88;;
23578;SDS011;11967;50.852;4.400;2022-09-30T18:40:26;6.97;;;3.10;;
23578;SDS011;11967;50.852;4.400;2022-09-30T18:42:56;5.35;;;3.45;;
23578;SDS011;11967;50.852;4.400;2022-09-30T18:45:24;8.10;;;3.60;;
23578;SDS011;11967;50.852;4.400;2022-09-30T18:47:52;6.35;;;3.17;;
23578;SDS011;11967;50.852;4.400;2022-09-30T18:50:19;5.97;;;3.40;;
23578;SDS011;11967;50.852;4.400;2022-09-30T18:52:47;7.20;;;3.53;;
23578;SDS011;11967;50.852;4.400;2022-09-30T18:55:14;6.65;;;3.45;;